Time;durP1;ratioP1;P1;durP2;ratioP2;P2;SDS_P1;SDS_P2;PMS_P1;PMS_P2;Temp;Humidity;BMP_temperature;BMP_pressure;BME280_temperature;BME280_humidity;BME280_pressure;Samples;Min_cycle;Max_cycle;Signal;HPM_P1;HPM_P2
2021/11/28 00:01:04;;;;;;;;;125.00;121.75;11.60;71.20;;;;;;5054539;28;8774;-79
2021/11/28 00:03:30;;;;;;;;;111.00;104.75;11.50;71.90;;;;;;5054276;28;8783;-77
2021/11/28 00:06:01;;;;;;;;;94.25;90.75;11.30;72.50;;;;;;5054064;28;8843;-76
2021/11/28 00:16:16;;;;;;;;;109.50;101.00;11.20;73.10;;;;;;5053837;28;8853;-76
2021/11/28 00:18:42;;;;;;;;;89.00;80.50;11.20;73.40;;;;;;5053982;28;8916;-78
2021/11/28 00:21:08;;;;;;;;;109.00;101.50;11.30;72.70;;;;;;5054149;28;8773;-78
2021/11/28 00:23:34;;;;;;;;;112.75;106.75;11.00;74.10;;;;;;5054255;28;8779;-79
2021/11/28 00:25:59;;;;;;;;;112.25;106.25;11.10;73.90;;;;;;5053975;28;8855;-77
2021/11/28 00:28:26;;;;;;;;;107.00;104.25;11.10;73.30;;;;;;5054041;28;8759;-77
2021/11/28 00:30:52;;;;;;;;;111.75;101.50;11.40;72.60;;;;;;5053972;28;8810;-77
2021/11/28 00:33:18;;;;;;;;;95.25;86.75;11.30;72.90;;;;;;5054003;28;8783;-77
2021/11/28 00:35:45;;;;;;;;;94.25;89.50;11.20;73.00;;;;;;5053867;28;8895;-78
2021/11/28 00:38:11;;;;;;;;;92.00;84.25;10.90;74.50;;;;;;5054022;28;8767;-79
2021/11/28 00:40:37;;;;;;;;;89.50;86.50;10.60;75.70;;;;;;5054244;28;8755;-77
2021/11/28 00:43:03;;;;;;;;;87.25;82.75;10.50;76.50;;;;;;5054188;28;8767;-76
2021/11/28 00:45:29;;;;;;;;;88.00;79.75;10.60;76.50;;;;;;5056095;28;8809;-77
2021/11/28 00:47:54;;;;;;;;;92.75;88.25;10.60;76.20;;;;;;5058251;28;8789;-77
2021/11/28 00:50:26;;;;;;;;;88.50;81.50;10.30;77.30;;;;;;5057979;28;9362;-76
2021/11/28 00:52:54;;;;;;;;;85.00;71.00;10.30;78.00;;;;;;5057930;28;8739;-75
2021/11/28 00:55:20;;;;;;;;;91.75;86.50;10.40;77.70;;;;;;5057899;28;8766;-76
2021/11/28 00:57:46;;;;;;;;;91.00;85.25;10.30;77.90;;;;;;5057892;28;8795;-76
2021/11/28 01:00:13;;;;;;;;;89.50;77.50;10.40;77.60;;;;;;5057645;28;9528;-76
2021/11/28 01:02:39;;;;;;;;;96.25;92.00;10.50;77.50;;;;;;5057911;28;9429;-78
2021/11/28 01:05:06;;;;;;;;;89.00;83.00;10.40;77.80;;;;;;5057418;28;9527;-77
2021/11/28 01:07:32;;;;;;;;;87.25;81.00;10.50;77.90;;;;;;5057617;28;8755;-76
2021/11/28 01:09:59;;;;;;;;;83.50;74.00;10.30;78.70;;;;;;5057796;28;8775;-79
2021/11/28 01:12:25;;;;;;;;;90.25;82.25;10.20;78.90;;;;;;5057495;28;8775;-76
2021/11/28 01:14:51;;;;;;;;;89.00;79.75;10.20;79.20;;;;;;5057441;28;8909;-76
2021/11/28 01:17:19;;;;;;;;;86.00;81.25;10.20;79.60;;;;;;5057422;28;8897;-78
2021/11/28 01:19:45;;;;;;;;;91.25;85.25;10.20;79.40;;;;;;5057444;28;8763;-77
2021/11/28 01:22:14;;;;;;;;;85.75;74.00;9.90;81.00;;;;;;5057364;28;8921;-77
2021/11/28 01:24:40;;;;;;;;;89.25;81.50;9.80;81.70;;;;;;5057272;28;8770;-76
2021/11/28 01:27:10;;;;;;;;;90.25;83.50;9.80;81.80;;;;;;5057225;28;8767;-78
2021/11/28 01:29:36;;;;;;;;;89.00;80.50;9.90;81.60;;;;;;5057225;28;9532;-77
2021/11/28 01:32:02;;;;;;;;;89.50;82.25;9.90;81.70;;;;;;5057428;28;8988;-77
2021/11/28 01:34:29;;;;;;;;;93.50;89.00;10.10;80.90;;;;;;5056969;28;8766;-80
2021/11/28 01:36:56;;;;;;;;;84.00;75.25;9.90;81.20;;;;;;5057297;28;8795;-77
2021/11/28 01:39:22;;;;;;;;;88.50;77.25;9.90;81.40;;;;;;5072792;28;8901;-78
2021/11/28 01:41:49;;;;;;;;;88.00;74.50;10.00;81.20;;;;;;5057018;28;8952;-78
2021/11/28 01:44:15;;;;;;;;;86.75;78.75;9.90;81.50;;;;;;5056067;28;8798;-80
2021/11/28 01:46:42;;;;;;;;;85.25;75.50;10.00;81.40;;;;;;5057297;28;8778;-78
2021/11/28 01:49:10;;;;;;;;;90.00;78.75;10.10;80.90;;;;;;5057192;28;8775;-75
2021/11/28 01:51:36;;;;;;;;;93.00;89.75;9.90;81.40;;;;;;5056766;28;8775;-78
2021/11/28 01:54:10;;;;;;;;;84.50;74.00;9.70;82.60;;;;;;5056913;28;8781;-76
2021/11/28 01:56:36;;;;;;;;;91.50;81.25;9.90;82.20;;;;;;5055758;28;8811;-76
2021/11/28 01:59:03;;;;;;;;;86.00;77.00;10.00;81.80;;;;;;5056624;28;9401;-77
2021/11/28 02:01:28;;;;;;;;;84.25;73.25;10.00;81.60;;;;;;5056904;28;8797;-77
2021/11/28 02:03:55;;;;;;;;;89.50;82.75;10.10;81.30;;;;;;5056603;28;8767;-78
2021/11/28 02:06:21;;;;;;;;;88.75;80.50;10.10;81.20;;;;;;5056469;28;8844;-76
2021/11/28 02:08:47;;;;;;;;;85.00;72.75;10.30;80.50;;;;;;5056500;28;8779;-77
2021/11/28 02:11:13;;;;;;;;;85.50;73.25;10.30;80.00;;;;;;5056470;28;8763;-76
2021/11/28 02:13:40;;;;;;;;;86.25;77.00;10.10;81.20;;;;;;5056654;28;9452;-78
2021/11/28 02:16:06;;;;;;;;;90.00;77.50;9.90;82.20;;;;;;5056362;28;8795;-78
2021/11/28 02:18:32;;;;;;;;;82.00;69.25;9.90;82.80;;;;;;5056351;28;8853;-76
2021/11/28 02:21:00;;;;;;;;;85.50;75.00;10.00;82.00;;;;;;5056465;28;8751;-75
2021/11/28 02:23:26;;;;;;;;;82.00;67.25;10.30;80.50;;;;;;5056282;28;8751;-77
2021/11/28 02:25:58;;;;;;;;;88.25;77.50;10.20;80.70;;;;;;5056311;28;8770;-76
2021/11/28 02:28:24;;;;;;;;;91.50;80.50;10.00;81.50;;;;;;5056210;28;8956;-78
2021/11/28 02:30:50;;;;;;;;;85.00;71.75;9.90;82.20;;;;;;5056385;28;8858;-78
2021/11/28 02:33:16;;;;;;;;;81.00;71.25;10.10;81.20;;;;;;5056144;28;8775;-79
2021/11/28 02:35:42;;;;;;;;;87.25;77.25;10.30;80.70;;;;;;5056269;28;8834;-78
2021/11/28 02:38:09;;;;;;;;;87.50;76.50;10.10;81.20;;;;;;5054937;28;8848;-79
2021/11/28 02:40:37;;;;;;;;;84.00;72.25;10.10;81.40;;;;;;5055915;28;8774;-76
2021/11/28 02:43:04;;;;;;;;;89.75;78.00;10.20;80.60;;;;;;5055828;28;8771;-77
2021/11/28 02:45:31;;;;;;;;;90.00;71.75;10.40;79.80;;;;;;5055827;28;8763;-77
2021/11/28 02:47:59;;;;;;;;;82.50;66.50;10.70;78.70;;;;;;5055734;28;8848;-76
2021/11/28 02:50:25;;;;;;;;;86.00;75.25;10.70;77.80;;;;;;5055921;28;8804;-77
2021/11/28 02:52:55;;;;;;;;;79.75;66.25;10.50;79.00;;;;;;5055705;28;8790;-77
2021/11/28 02:55:34;;;;;;;;;82.50;66.25;10.50;78.90;;;;;;5055657;28;8751;-77
2021/11/28 02:58:01;;;;;;;;;83.00;72.50;10.30;80.00;;;;;;5055445;28;8837;-77
2021/11/28 03:00:30;;;;;;;;;85.75;74.00;10.10;80.80;;;;;;5055488;28;8797;-79
2021/11/28 03:02:56;;;;;;;;;82.75;68.75;9.90;81.70;;;;;;5055482;28;8851;-78
2021/11/28 03:05:21;;;;;;;;;83.50;71.75;10.00;81.90;;;;;;5055389;28;8846;-78
2021/11/28 03:07:47;;;;;;;;;66.00;54.00;10.20;81.30;;;;;;5055353;28;9428;-79
2021/11/28 03:10:39;;;;;;;;;86.00;73.75;10.20;80.90;;;;;;5055250;28;8801;-78
2021/11/28 03:13:15;;;;;;;;;83.25;71.25;10.20;80.90;;;;;;5055281;28;8775;-78
2021/11/28 03:15:41;;;;;;;;;84.75;71.50;10.40;80.10;;;;;;5054458;28;9441;-78
2021/11/28 03:18:15;;;;;;;;;83.00;70.75;10.40;79.30;;;;;;5055435;28;8767;-77
2021/11/28 03:20:42;;;;;;;;;82.25;69.00;10.40;79.80;;;;;;5055226;28;9137;-76
2021/11/28 03:23:09;;;;;;;;;82.50;71.75;10.80;78.10;;;;;;5055110;28;8759;-78
2021/11/28 03:25:35;;;;;;;;;85.25;70.50;10.90;76.90;;;;;;5070718;28;8787;-78
2021/11/28 03:28:01;;;;;;;;;84.00;67.75;11.30;76.00;;;;;;5055021;28;8810;-77
2021/11/28 03:30:26;;;;;;;;;82.50;73.00;10.80;77.40;;;;;;5055129;28;8856;-77
2021/11/28 03:32:52;;;;;;;;;84.00;69.25;10.90;77.30;;;;;;5054962;28;8775;-77
2021/11/28 03:35:19;;;;;;;;;83.50;72.00;11.00;76.60;;;;;;5055171;28;8818;-76
2021/11/28 03:37:45;;;;;;;;;82.25;68.75;11.00;76.70;;;;;;5054760;28;8901;-78
2021/11/28 03:40:14;;;;;;;;;81.25;71.00;10.70;78.50;;;;;;5055071;28;8809;-78
2021/11/28 03:42:40;;;;;;;;;82.50;70.75;11.00;77.10;;;;;;5070365;28;8886;-77
2021/11/28 03:45:11;;;;;;;;;82.00;68.50;11.10;76.40;;;;;;5054693;28;8848;-77
2021/11/28 03:47:37;;;;;;;;;84.00;70.75;10.90;76.90;;;;;;5070329;28;8798;-78
2021/11/28 03:50:08;;;;;;;;;79.25;69.00;10.80;77.40;;;;;;5054889;28;8791;-77
2021/11/28 03:52:34;;;;;;;;;80.25;66.00;11.00;76.80;;;;;;5054671;28;8755;-78
2021/11/28 03:54:59;;;;;;;;;81.00;66.00;11.00;76.00;;;;;;5054623;28;8773;-77
2021/11/28 03:57:26;;;;;;;;;83.25;71.25;11.20;75.50;;;;;;5054384;28;8929;-79
2021/11/28 03:59:51;;;;;;;;;84.50;73.00;11.30;74.90;;;;;;5054742;28;8821;-78
2021/11/28 04:02:18;;;;;;;;;83.00;68.25;11.00;75.90;;;;;;5054413;28;8775;-77
2021/11/28 04:04:45;;;;;;;;;82.00;70.75;11.30;74.90;;;;;;5054163;28;8802;-77
2021/11/28 04:07:11;;;;;;;;;87.50;76.75;11.30;74.30;;;;;;5054724;28;8775;-77
2021/11/28 04:09:36;;;;;;;;;77.50;63.00;11.30;74.60;;;;;;5054570;28;8775;-78
2021/11/28 04:12:02;;;;;;;;;88.00;81.50;11.20;75.00;;;;;;5054417;28;8763;-77
2021/11/28 04:14:28;;;;;;;;;83.25;72.00;10.90;75.70;;;;;;5054283;28;8775;-78
2021/11/28 04:16:54;;;;;;;;;80.00;68.50;10.70;76.80;;;;;;5054433;28;8791;-81
2021/11/28 04:19:20;;;;;;;;;80.00;66.75;10.80;76.30;;;;;;5053812;28;8948;-77
2021/11/28 04:21:46;;;;;;;;;82.50;69.75;10.80;76.20;;;;;;5054234;28;8755;-77
2021/11/28 04:24:12;;;;;;;;;77.75;61.50;10.60;77.00;;;;;;5054267;28;8881;-78
2021/11/28 04:26:39;;;;;;;;;78.00;64.00;11.10;74.90;;;;;;5054442;28;8767;-77
2021/11/28 04:29:05;;;;;;;;;85.75;75.75;11.10;74.90;;;;;;5054163;28;8770;-78
2021/11/28 04:31:31;;;;;;;;;89.50;84.25;11.10;73.80;;;;;;5054411;28;8755;-78
2021/11/28 04:33:56;;;;;;;;;91.75;86.75;10.60;75.60;;;;;;5054129;28;8820;-79
2021/11/28 04:36:22;;;;;;;;;98.50;93.00;10.80;74.90;;;;;;5054387;28;8834;-78
2021/11/28 04:38:48;;;;;;;;;92.75;86.75;10.80;74.50;;;;;;5054068;28;8782;-78
2021/11/28 04:41:14;;;;;;;;;134.25;126.00;10.70;74.40;;;;;;5054014;28;8795;-78
2021/11/28 04:43:39;;;;;;;;;108.00;103.00;10.40;75.40;;;;;;5054049;28;8786;-78
2021/11/28 04:46:05;;;;;;;;;122.25;114.00;9.80;79.00;;;;;;5054017;28;8848;-78
2021/11/28 04:48:31;;;;;;;;;116.25;114.75;9.60;80.40;;;;;;5054298;28;8791;-79
2021/11/28 04:50:57;;;;;;;;;107.00;103.00;9.70;79.80;;;;;;5053951;28;8763;-77
2021/11/28 04:53:22;;;;;;;;;100.25;95.25;10.00;78.70;;;;;;5053955;28;8780;-78
2021/11/28 04:55:51;;;;;;;;;99.25;81.00;10.10;77.40;;;;;;5053796;28;8763;-79
2021/11/28 04:58:17;;;;;;;;;93.25;89.50;10.30;76.70;;;;;;5054111;28;8774;-78
2021/11/28 05:00:43;;;;;;;;;101.25;93.25;10.60;75.50;;;;;;5053890;28;8793;-77
2021/11/28 05:03:09;;;;;;;;;122.00;115.50;10.60;74.80;;;;;;5054062;28;8817;-78
2021/11/28 05:05:35;;;;;;;;;119.50;113.25;10.20;76.40;;;;;;5053594;28;8823;-80
2021/11/28 05:08:01;;;;;;;;;126.75;109.25;10.00;77.20;;;;;;5069470;28;8811;-76
2021/11/28 05:10:27;;;;;;;;;117.50;108.00;10.50;75.70;;;;;;5053776;28;8783;-77
2021/11/28 05:12:53;;;;;;;;;109.75;103.00;10.30;75.60;;;;;;5053740;28;8771;-78
2021/11/28 05:15:19;;;;;;;;;103.25;98.75;9.60;78.90;;;;;;5053927;28;8775;-77
2021/11/28 05:17:45;;;;;;;;;110.50;100.75;9.60;78.90;;;;;;5053897;28;8794;-77
2021/11/28 05:20:11;;;;;;;;;92.75;86.25;9.30;79.90;;;;;;5053759;28;8848;-78
2021/11/28 05:22:38;;;;;;;;;75.25;62.25;8.90;81.10;;;;;;5054049;28;8861;-78
2021/11/28 05:25:05;;;;;;;;;85.00;72.50;8.70;82.20;;;;;;5053660;28;8789;-78
2021/11/28 05:27:31;;;;;;;;;81.00;67.75;8.90;80.80;;;;;;5053540;28;8779;-77
2021/11/28 05:29:57;;;;;;;;;83.00;67.50;9.10;79.30;;;;;;5053624;28;8763;-77
2021/11/28 05:32:23;;;;;;;;;87.75;76.00;8.90;79.50;;;;;;5055486;28;8854;-77
2021/11/28 05:34:50;;;;;;;;;88.00;77.25;9.00;79.00;;;;;;5057164;28;8803;-79
2021/11/28 05:37:16;;;;;;;;;91.00;82.25;9.10;78.60;;;;;;5056986;28;8917;-80
2021/11/28 05:39:42;;;;;;;;;84.50;72.25;9.10;78.00;;;;;;5057065;28;8787;-79
2021/11/28 05:42:08;;;;;;;;;94.25;86.25;9.00;78.50;;;;;;5057103;28;8771;-80
2021/11/28 05:44:34;;;;;;;;;87.50;78.00;9.00;78.20;;;;;;5057036;28;8888;-79
2021/11/28 05:47:00;;;;;;;;;92.00;85.75;9.40;76.60;;;;;;5056909;28;8809;-80
2021/11/28 05:49:27;;;;;;;;;96.25;95.75;9.60;75.10;;;;;;5057064;28;8786;-78
2021/11/28 05:51:52;;;;;;;;;134.75;126.25;9.60;74.70;;;;;;5057056;28;8856;-77
2021/11/28 05:54:18;;;;;;;;;131.75;124.50;9.30;75.80;;;;;;5056799;28;8767;-80
2021/11/28 05:56:44;;;;;;;;;116.50;109.50;9.40;75.40;;;;;;5056651;28;8947;-79
2021/11/28 05:59:10;;;;;;;;;115.00;112.50;9.90;73.30;;;;;;5056700;28;8854;-79
2021/11/28 06:01:36;;;;;;;;;96.75;94.00;9.90;72.40;;;;;;5056659;28;8747;-80
2021/11/28 06:04:02;;;;;;;;;100.75;98.75;9.30;74.10;;;;;;5056869;28;8794;-79
2021/11/28 06:06:28;;;;;;;;;86.00;76.50;9.30;74.10;;;;;;5056336;28;8831;-78
2021/11/28 06:08:54;;;;;;;;;84.50;73.75;9.30;74.10;;;;;;5056591;28;8794;-79
2021/11/28 06:11:20;;;;;;;;;85.25;71.00;9.20;74.30;;;;;;5056428;28;8779;-78
2021/11/28 06:13:45;;;;;;;;;87.25;75.00;9.10;74.20;;;;;;5056422;28;8873;-79
2021/11/28 06:16:12;;;;;;;;;79.00;64.00;9.10;75.00;;;;;;5055286;28;8803;-79
2021/11/28 06:18:37;;;;;;;;;85.50;72.50;9.00;75.30;;;;;;5056623;28;8793;-78
2021/11/28 06:21:03;;;;;;;;;77.75;63.25;9.10;74.90;;;;;;5056383;28;9390;-78
2021/11/28 06:23:29;;;;;;;;;85.25;71.75;9.00;75.30;;;;;;5056297;28;8767;-78
2021/11/28 06:25:55;;;;;;;;;89.75;78.00;9.00;75.50;;;;;;5056192;28;8759;-79
2021/11/28 06:28:21;;;;;;;;;93.25;87.00;8.80;75.80;;;;;;5056088;28;8771;-78
2021/11/28 06:30:47;;;;;;;;;88.50;82.50;9.20;75.40;;;;;;5056156;28;8759;-78
2021/11/28 06:33:13;;;;;;;;;99.75;97.25;9.00;75.10;;;;;;5055927;28;8782;-80
2021/11/28 06:35:39;;;;;;;;;97.00;94.25;9.10;75.10;;;;;;5057417;28;8815;-80
2021/11/28 06:38:05;;;;;;;;;92.25;82.25;9.30;74.00;;;;;;5073379;28;8944;-79
2021/11/28 06:40:31;;;;;;;;;90.50;84.00;8.70;76.20;;;;;;5062649;28;8807;-82
2021/11/28 06:42:57;;;;;;;;;89.75;80.00;8.60;77.20;;;;;;5055408;28;8771;-81
2021/11/28 06:45:23;;;;;;;;;79.50;64.25;8.80;76.80;;;;;;5056262;28;8787;-80
2021/11/28 06:47:48;;;;;;;;;83.25;71.50;8.90;76.30;;;;;;5067879;28;8808;-80
2021/11/28 06:50:15;;;;;;;;;88.00;77.75;9.10;75.60;;;;;;5075632;28;8773;-80
2021/11/28 06:52:41;;;;;;;;;84.50;76.00;9.00;76.20;;;;;;5075636;28;8787;-80
2021/11/28 06:55:07;;;;;;;;;93.75;86.50;9.10;75.80;;;;;;5075804;28;8792;-81
2021/11/28 06:57:33;;;;;;;;;96.75;91.75;8.80;77.10;;;;;;5075832;28;8801;-80
2021/11/28 06:59:58;;;;;;;;;84.75;74.00;9.00;76.80;;;;;;5075494;28;8910;-80
2021/11/28 07:02:24;;;;;;;;;83.75;73.00;8.70;78.10;;;;;;5068703;28;8780;-79
2021/11/28 07:04:50;;;;;;;;;94.00;90.00;8.80;78.40;;;;;;5062931;28;8796;-81
2021/11/28 07:07:16;;;;;;;;;101.25;95.75;9.20;77.50;;;;;;5075263;28;8816;-78
2021/11/28 07:09:42;;;;;;;;;103.50;100.50;9.40;76.00;;;;;;5060313;28;9428;-79
2021/11/28 07:12:08;;;;;;;;;116.50;112.00;9.40;76.20;;;;;;5072309;28;8792;-80
2021/11/28 07:14:34;;;;;;;;;112.00;108.25;9.40;76.50;;;;;;5075278;28;8764;-79
2021/11/28 07:16:59;;;;;;;;;96.75;91.25;9.60;76.50;;;;;;5075220;28;9326;-79
2021/11/28 07:19:25;;;;;;;;;93.75;91.50;9.50;76.40;;;;;;5075591;28;8764;-81
2021/11/28 07:21:51;;;;;;;;;93.00;84.50;9.40;77.30;;;;;;5075115;28;8765;-80
2021/11/28 07:24:17;;;;;;;;;90.50;84.50;9.70;76.80;;;;;;5075120;28;8749;-80
2021/11/28 07:26:42;;;;;;;;;84.50;74.25;9.20;78.70;;;;;;5075015;28;8854;-80
2021/11/28 07:29:08;;;;;;;;;90.00;87.00;9.30;79.20;;;;;;5075210;28;8761;-79
2021/11/28 07:31:34;;;;;;;;;90.00;87.50;9.40;78.80;;;;;;5075340;28;8745;-80
2021/11/28 07:34:00;;;;;;;;;95.25;91.75;9.90;77.20;;;;;;5061039;28;8801;-81
2021/11/28 07:36:26;;;;;;;;;88.75;86.50;10.00;76.90;;;;;;5053700;28;8831;-79
2021/11/28 07:38:52;;;;;;;;;90.50;82.75;9.80;78.40;;;;;;5054668;28;8906;-79
2021/11/28 07:41:17;;;;;;;;;93.00;82.75;9.50;80.30;;;;;;5054695;28;8782;-78
2021/11/28 07:43:43;;;;;;;;;101.75;99.50;9.70;79.90;;;;;;5054755;28;8779;-77
2021/11/28 07:46:09;;;;;;;;;92.00;85.75;9.80;79.40;;;;;;5054686;28;8763;-78
2021/11/28 07:48:35;;;;;;;;;95.75;93.75;9.50;80.80;;;;;;5054650;28;8755;-76
2021/11/28 07:51:00;;;;;;;;;97.50;95.50;9.70;80.60;;;;;;5054412;28;8783;-77
2021/11/28 07:53:26;;;;;;;;;106.00;99.25;10.00;79.60;;;;;;5054435;28;8755;-77
2021/11/28 07:55:53;;;;;;;;;96.25;93.50;10.10;79.70;;;;;;5053895;28;8771;-76
2021/11/28 07:58:19;;;;;;;;;85.25;73.50;10.70;77.80;;;;;;5054767;28;8802;-77
2021/11/28 08:00:44;;;;;;;;;86.50;81.00;10.70;76.70;;;;;;5057970;28;8818;-77
2021/11/28 08:03:10;;;;;;;;;86.25;78.25;10.70;77.00;;;;;;5066717;28;8788;-79
2021/11/28 08:05:36;;;;;;;;;78.50;67.75;10.50;77.70;;;;;;5064806;28;8821;-78
2021/11/28 08:08:04;;;;;;;;;83.00;70.50;10.50;77.40;;;;;;5062962;28;8818;-78
2021/11/28 08:10:30;;;;;;;;;77.75;65.75;10.60;77.20;;;;;;5057238;28;8780;-77
2021/11/28 08:12:57;;;;;;;;;78.25;67.25;10.90;76.20;;;;;;5073177;28;8769;-75
2021/11/28 08:15:23;;;;;;;;;85.00;76.50;11.10;75.00;;;;;;5067823;28;8783;-76
2021/11/28 08:17:49;;;;;;;;;83.00;76.75;11.10;75.30;;;;;;5072838;28;8910;-78
2021/11/28 08:20:17;;;;;;;;;91.25;89.50;10.80;77.20;;;;;;5073012;28;8745;-75
2021/11/28 08:22:43;;;;;;;;;105.25;99.25;10.60;77.90;;;;;;5068547;28;8780;-77
2021/11/28 08:25:12;;;;;;;;;89.25;80.50;10.80;78.20;;;;;;5072834;28;8777;-77
2021/11/28 08:27:38;;;;;;;;;88.50;83.00;10.80;77.60;;;;;;5072872;28;8809;-75
2021/11/28 08:30:11;;;;;;;;;86.25;78.00;11.10;76.80;;;;;;5070074;28;8764;-78
2021/11/28 08:32:39;;;;;;;;;77.75;67.00;11.40;76.10;;;;;;5056231;28;8853;-78
2021/11/28 08:35:09;;;;;;;;;79.75;68.00;11.20;76.00;;;;;;5053813;28;8830;-77
2021/11/28 08:37:35;;;;;;;;;75.50;64.25;11.30;76.40;;;;;;5067296;28;8897;-77
2021/11/28 08:40:04;;;;;;;;;81.50;72.25;11.50;75.50;;;;;;5070670;28;8804;-79
2021/11/28 08:42:33;;;;;;;;;84.00;74.50;11.60;76.00;;;;;;5056572;28;8808;-77
2021/11/28 08:45:06;;;;;;;;;79.00;70.00;12.10;74.00;;;;;;5072078;28;8804;-77
2021/11/28 08:47:32;;;;;;;;;77.00;65.50;12.30;73.40;;;;;;5063580;28;8799;-76
2021/11/28 08:49:58;;;;;;;;;75.75;65.25;12.50;72.20;;;;;;5061889;28;8784;-76
2021/11/28 08:52:24;;;;;;;;;78.25;67.25;12.40;73.50;;;;;;5056754;28;8799;-77
2021/11/28 08:54:50;;;;;;;;;77.25;68.25;13.10;70.80;;;;;;5070331;28;8799;-78
2021/11/28 08:57:16;;;;;;;;;75.75;65.00;13.60;70.00;;;;;;5057039;28;8988;-76
2021/11/28 08:59:42;;;;;;;;;72.75;58.50;13.20;70.20;;;;;;5068983;28;8819;-78
2021/11/28 09:02:09;;;;;;;;;70.75;59.75;13.70;69.70;;;;;;5058004;28;8895;-78
2021/11/28 09:04:36;;;;;;;;;71.00;58.25;13.70;69.00;;;;;;5062106;28;8845;-77
2021/11/28 09:07:03;;;;;;;;;75.75;67.50;13.90;68.20;;;;;;5064984;28;8925;-79
2021/11/28 09:09:29;;;;;;;;;75.50;66.75;14.40;66.60;;;;;;5057646;28;8898;-77
2021/11/28 09:11:55;;;;;;;;;75.00;63.75;14.40;67.30;;;;;;5071291;28;8800;-78
2021/11/28 09:14:21;;;;;;;;;75.00;63.50;14.60;67.60;;;;;;5067774;28;8828;-77
2021/11/28 09:16:47;;;;;;;;;75.00;64.50;15.00;65.70;;;;;;5071873;28;8796;-78
2021/11/28 09:19:18;;;;;;;;;74.25;64.00;15.20;65.80;;;;;;5060478;28;9401;-78
2021/11/28 09:21:44;;;;;;;;;73.75;63.75;15.40;64.70;;;;;;5065795;28;9461;-73
2021/11/28 09:26:54;;;;;;;;;55.75;47.50;15.30;64.70;;;;;;5068242;28;8796;-73
2021/11/28 09:29:20;;;;;;;;;53.75;46.00;15.00;65.50;;;;;;5060547;28;8806;-69
2021/11/28 09:31:47;;;;;;;;;55.25;46.50;15.10;65.10;;;;;;5057176;28;8775;-68
2021/11/28 09:34:13;;;;;;;;;64.00;52.75;15.30;65.10;;;;;;5059332;28;8805;-69
2021/11/28 09:36:39;;;;;;;;;54.75;46.00;15.50;65.30;;;;;;5069588;28;8807;-72
2021/11/28 09:39:05;;;;;;;;;58.25;49.50;15.60;63.90;;;;;;5066342;28;8772;-72
2021/11/28 09:41:36;;;;;;;;;62.00;50.25;15.50;64.20;;;;;;5062950;28;8807;-73
2021/11/28 09:44:08;;;;;;;;;47.00;39.50;16.00;63.90;;;;;;5060198;28;8788;-72
2021/11/28 09:46:35;;;;;;;;;58.25;48.25;16.30;61.80;;;;;;5064737;28;8770;-65
2021/11/28 09:49:04;;;;;;;;;57.50;47.75;16.30;62.20;;;;;;5063620;28;8771;-67
2021/11/28 09:51:31;;;;;;;;;60.50;49.00;16.40;61.50;;;;;;5056829;28;8775;-71
2021/11/28 09:54:03;;;;;;;;;61.25;50.50;17.30;60.10;;;;;;5056971;28;8759;-68
2021/11/28 09:56:37;;;;;;;;;34.67;33.33;17.50;58.20;;;;;;5056811;28;8794;-67
2021/11/28 09:59:05;;;;;;;;;30.00;30.00;17.20;56.80;;;;;;5056664;28;8787;-66
2021/11/28 10:01:35;;;;;;;;;35.00;30.67;17.40;55.90;;;;;;5056553;28;8755;-65
2021/11/28 10:04:02;;;;;;;;;23.33;22.00;18.20;53.40;;;;;;5056781;28;9614;-66
2021/11/28 10:06:29;;;;;;;;;22.00;22.00;21.90;48.30;;;;;;5062199;28;8983;-65
2021/11/28 10:08:56;;;;;;;;;25.67;24.67;22.70;43.40;;;;;;5064604;28;11524;-69
2021/11/28 10:11:45;;;;;;;;;23.75;23.75;23.30;42.70;;;;;;5064895;28;11534;-68
2021/11/28 10:14:14;;;;;;;;;28.50;28.50;26.20;36.40;;;;;;5069721;28;11534;-73
2021/11/28 10:16:40;;;;;;;;;28.33;28.33;22.60;39.70;;;;;;5054971;28;11658;-65
2021/11/28 10:19:07;;;;;;;;;26.33;26.00;21.10;44.20;;;;;;5068214;28;12127;-70
2021/11/28 10:21:34;;;;;;;;;27.67;27.67;19.90;46.30;;;;;;5065426;28;11508;-64
2021/11/28 10:24:11;;;;;;;;;27.33;27.33;19.80;46.50;;;;;;5057629;28;8776;-68
2021/11/28 10:26:51;;;;;;;;;29.67;29.67;22.20;44.60;;;;;;5065115;28;8793;-64
2021/11/28 10:29:17;;;;;;;;;31.67;30.67;26.20;37.90;;;;;;5056059;28;11580;-68
2021/11/28 10:31:52;;;;;;;;;37.33;33.67;30.20;31.80;;;;;;5055643;28;11643;-65
2021/11/28 10:34:20;;;;;;;;;42.00;36.00;31.20;29.50;;;;;;5061438;28;8823;-64
2021/11/28 10:36:48;;;;;;;;;33.00;31.67;31.30;28.90;;;;;;5061812;28;8815;-65
2021/11/28 10:39:19;;;;;;;;;33.67;31.00;31.40;28.40;;;;;;5066698;28;8783;-65
2021/11/28 10:41:51;;;;;;;;;31.50;30.25;32.00;27.60;;;;;;5067009;28;11580;-66
2021/11/28 10:44:20;;;;;;;;;19.25;19.25;34.20;26.40;;;;;;5063487;28;11495;-68
2021/11/28 10:46:46;;;;;;;;;24.75;24.75;34.20;25.40;;;;;;5066475;28;11577;-67
2021/11/28 10:49:18;;;;;;;;;28.00;28.00;31.90;26.00;;;;;;5064464;28;11529;-68
2021/11/28 10:51:53;;;;;;;;;28.75;28.75;31.20;26.80;;;;;;5055656;28;12204;-65
2021/11/28 10:54:27;;;;;;;;;28.00;28.00;30.40;27.30;;;;;;5057377;28;12256;-66
2021/11/28 10:57:07;;;;;;;;;28.00;28.00;30.70;27.90;;;;;;5058769;28;12241;-65
2021/11/28 10:59:41;;;;;;;;;27.00;27.00;30.20;27.00;;;;;;5061662;28;11569;-70
2021/11/28 11:02:18;;;;;;;;;21.00;21.00;29.80;28.10;;;;;;5075557;28;11582;-68
2021/11/28 11:04:44;;;;;;;;;20.75;20.75;29.60;27.10;;;;;;5068863;28;11531;-68
2021/11/28 11:07:12;;;;;;;;;22.75;22.75;28.80;28.40;;;;;;5055069;28;11682;-68
2021/11/28 11:09:56;;;;;;;;;21.50;21.50;29.30;28.40;;;;;;5055400;28;8810;-67
2021/11/28 11:12:35;;;;;;;;;29.00;28.50;29.80;26.90;;;;;;5055398;28;11515;-62
2021/11/28 11:15:01;;;;;;;;;25.00;24.00;29.20;27.20;;;;;;5061270;28;11544;-67
2021/11/28 11:17:31;;;;;;;;;21.75;21.75;29.10;28.00;;;;;;5070528;28;11553;-64
2021/11/28 11:19:58;;;;;;;;;25.25;24.50;29.50;26.80;;;;;;5055018;28;11479;-64
2021/11/28 11:22:25;;;;;;;;;38.00;33.67;30.80;27.40;;;;;;5054924;28;11515;-67
2021/11/28 11:25:00;;;;;;;;;34.75;32.50;32.10;26.60;;;;;;5054768;28;11497;-65
2021/11/28 11:27:28;;;;;;;;;23.00;23.00;30.50;25.90;;;;;;5057161;28;11500;-65
2021/11/28 11:30:00;;;;;;;;;19.50;19.50;29.20;27.30;;;;;;5055977;28;11510;-64
2021/11/28 11:32:41;;;;;;;;;20.50;20.50;28.60;28.10;;;;;;5071440;28;11484;-65
2021/11/28 11:35:09;;;;;;;;;22.75;22.75;28.50;28.00;;;;;;5074973;28;11558;-64
2021/11/28 11:37:37;;;;;;;;;26.75;26.75;27.90;27.50;;;;;;5073490;28;12247;-64
2021/11/28 11:40:11;;;;;;;;;20.33;20.33;26.50;28.30;;;;;;5057797;28;11546;-64
2021/11/28 11:42:39;;;;;;;;;28.00;28.00;24.30;31.40;;;;;;5069560;28;11524;-66
2021/11/28 11:45:06;;;;;;;;;29.00;29.00;22.60;34.10;;;;;;5061122;28;11534;-67
2021/11/28 11:47:32;;;;;;;;;28.67;28.67;21.80;35.60;;;;;;5054482;28;8799;-67
2021/11/28 11:49:58;;;;;;;;;33.33;32.33;21.50;36.70;;;;;;5054408;28;8791;-68
2021/11/28 11:52:25;;;;;;;;;29.00;28.67;21.20;37.50;;;;;;5054710;28;8801;-67
2021/11/28 11:55:12;;;;;;;;;29.33;28.67;20.70;38.90;;;;;;5054454;28;8781;-67
2021/11/28 11:57:46;;;;;;;;;28.00;28.00;20.50;38.90;;;;;;5054626;28;8833;-68
2021/11/28 12:00:38;;;;;;;;;40.00;36.33;20.10;40.70;;;;;;5053016;28;8791;-66
2021/11/28 12:03:14;;;;;;;;;42.33;37.33;20.10;41.10;;;;;;5054588;28;8782;-66
2021/11/28 12:05:41;;;;;;;;;42.67;37.00;20.00;41.50;;;;;;5054459;28;8953;-67
2021/11/28 12:08:28;;;;;;;;;54.33;45.67;20.40;40.50;;;;;;5054790;28;8774;-65
2021/11/28 12:11:07;;;;;;;;;47.33;40.67;20.30;39.60;;;;;;5054776;28;8803;-70
2021/11/28 12:13:54;;;;;;;;;38.00;35.00;20.50;39.20;;;;;;5054561;28;8803;-70
2021/11/28 12:16:21;;;;;;;;;41.67;36.67;20.50;40.40;;;;;;5054076;28;8783;-70
2021/11/28 12:18:50;;;;;;;;;38.00;35.00;20.60;38.80;;;;;;5054518;28;8775;-69
2021/11/28 12:21:17;;;;;;;;;41.67;36.00;20.70;38.50;;;;;;5054087;28;8775;-69
2021/11/28 12:24:01;;;;;;;;;44.33;38.67;20.60;38.30;;;;;;5054142;28;8774;-68
2021/11/28 12:26:27;;;;;;;;;42.00;38.33;20.40;38.80;;;;;;5054112;28;8758;-70
2021/11/28 12:29:15;;;;;;;;;43.33;38.33;20.20;39.00;;;;;;5054390;28;8751;-69
2021/11/28 12:31:49;;;;;;;;;31.00;31.00;20.40;38.10;;;;;;5054080;28;8852;-71
2021/11/28 12:34:22;;;;;;;;;22.00;22.00;20.00;37.80;;;;;;5053998;28;8774;-69
2021/11/28 12:36:55;;;;;;;;;27.00;27.00;19.90;37.90;;;;;;5054207;28;8806;-68
2021/11/28 12:39:24;;;;;;;;;34.00;33.00;20.50;37.20;;;;;;5054089;28;8805;-68
2021/11/28 12:42:09;;;;;;;;;33.00;32.00;20.60;36.90;;;;;;5059492;28;9511;-71
2021/11/28 12:44:57;;;;;;;;;36.00;33.00;20.20;37.80;;;;;;5078420;28;8773;-70
2021/11/28 12:47:27;;;;;;;;;14.67;14.67;20.10;36.60;;;;;;5078147;28;8772;-71
2021/11/28 12:50:17;;;;;;;;;22.00;22.00;20.00;36.90;;;;;;5077845;28;11446;-70